Terminal Aerodrome Forecast
Issued by NWS

Home | Current Version | Previous Version | Text Only | Print | Product List | Glossary On
Versions: 1 2 3 4 5 6 7 8 9 10 11 12 13 14 15 16 17 18 19 20
238
FTUS41 KCAR 222333
TAFFVE
TAF
KFVE 222333Z 2300/2324 23010G20KT P6SM SCT060
     FM230200 25007KT P6SM OVC080
     FM230600 26004KT P6SM VCSH OVC030
     FM230900 00000KT P6SM -SHRA OVC015
     FM231300 02007KT P6SM VCSH BKN010
     FM231900 01006KT P6SM SCT250=

USA.gov is the U.S. government's official web portal to all federal, state and local government web resources and services.